sensor_id;sensor_type;location;lat;lon;timestamp;P1;durP1;ratioP1;P2;durP2;ratioP2
14554;SDS011;7364;50.870;4.722;2023-07-24T00:00:20;0.67;;;0.67;;
14554;SDS011;7364;50.870;4.722;2023-07-24T00:02:48;0.30;;;0.30;;
14554;SDS011;7364;50.870;4.722;2023-07-24T00:05:15;0.37;;;0.37;;
14554;SDS011;7364;50.870;4.722;2023-07-24T00:07:42;0.60;;;0.60;;
14554;SDS011;7364;50.870;4.722;2023-07-24T00:10:11;0.20;;;0.20;;
14554;SDS011;7364;50.870;4.722;2023-07-24T00:12:38;0.07;;;0.07;;
14554;SDS011;7364;50.870;4.722;2023-07-24T00:15:06;0.13;;;0.13;;
14554;SDS011;7364;50.870;4.722;2023-07-24T00:17:33;0.47;;;0.47;;
14554;SDS011;7364;50.870;4.722;2023-07-24T00:20:01;0.73;;;0.73;;
14554;SDS011;7364;50.870;4.722;2023-07-24T00:22:28;2.73;;;1.63;;
14554;SDS011;7364;50.870;4.722;2023-07-24T00:24:56;0.10;;;0.10;;
14554;SDS011;7364;50.870;4.722;2023-07-24T00:27:25;0.57;;;0.53;;
14554;SDS011;7364;50.870;4.722;2023-07-24T00:29:52;0.47;;;0.47;;
14554;SDS011;7364;50.870;4.722;2023-07-24T00:32:20;0.17;;;0.17;;
14554;SDS011;7364;50.870;4.722;2023-07-24T00:34:47;1.03;;;1.00;;
14554;SDS011;7364;50.870;4.722;2023-07-24T00:37:15;0.17;;;0.17;;
14554;SDS011;7364;50.870;4.722;2023-07-24T00:39:42;1.07;;;0.63;;
14554;SDS011;7364;50.870;4.722;2023-07-24T00:42:09;0.97;;;0.87;;
14554;SDS011;7364;50.870;4.722;2023-07-24T00:44:38;3.30;;;1.63;;
14554;SDS011;7364;50.870;4.722;2023-07-24T00:47:05;2.13;;;0.63;;
14554;SDS011;7364;50.870;4.722;2023-07-24T00:49:32;0.30;;;0.30;;
14554;SDS011;7364;50.870;4.722;2023-07-24T00:52:00;1.37;;;0.67;;
14554;SDS011;7364;50.870;4.722;2023-07-24T00:54:28;0.33;;;0.33;;
14554;SDS011;7364;50.870;4.722;2023-07-24T00:56:57;0.77;;;0.73;;
14554;SDS011;7364;50.870;4.722;2023-07-24T00:59:24;1.10;;;1.10;;
14554;SDS011;7364;50.870;4.722;2023-07-24T01:01:53;0.40;;;0.40;;
14554;SDS011;7364;50.870;4.722;2023-07-24T01:04:21;0.17;;;0.17;;
14554;SDS011;7364;50.870;4.722;2023-07-24T01:06:49;0.67;;;0.67;;
14554;SDS011;7364;50.870;4.722;2023-07-24T01:09:16;0.00;;;0.00;;
14554;SDS011;7364;50.870;4.722;2023-07-24T01:11:45;0.73;;;0.73;;
14554;SDS011;7364;50.870;4.722;2023-07-24T01:14:18;0.20;;;0.20;;
14554;SDS011;7364;50.870;4.722;2023-07-24T01:16:48;2.33;;;0.97;;
14554;SDS011;7364;50.870;4.722;2023-07-24T01:19:20;0.00;;;0.00;;
14554;SDS011;7364;50.870;4.722;2023-07-24T01:22:01;18.27;;;1.70;;
14554;SDS011;7364;50.870;4.722;2023-07-24T01:24:37;0.00;;;0.00;;
14554;SDS011;7364;50.870;4.722;2023-07-24T01:27:27;0.10;;;0.10;;
14554;SDS011;7364;50.870;4.722;2023-07-24T01:29:54;0.20;;;0.20;;
14554;SDS011;7364;50.870;4.722;2023-07-24T01:32:21;0.20;;;0.20;;
14554;SDS011;7364;50.870;4.722;2023-07-24T01:34:49;0.23;;;0.23;;
14554;SDS011;7364;50.870;4.722;2023-07-24T01:37:17;4.60;;;1.03;;
14554;SDS011;7364;50.870;4.722;2023-07-24T01:39:46;6.47;;;1.20;;
14554;SDS011;7364;50.870;4.722;2023-07-24T01:42:14;0.70;;;0.70;;
14554;SDS011;7364;50.870;4.722;2023-07-24T01:44:44;0.30;;;0.30;;
14554;SDS011;7364;50.870;4.722;2023-07-24T01:47:11;1.70;;;0.73;;
14554;SDS011;7364;50.870;4.722;2023-07-24T01:49:38;0.40;;;0.40;;
14554;SDS011;7364;50.870;4.722;2023-07-24T01:52:06;1.20;;;0.93;;
14554;SDS011;7364;50.870;4.722;2023-07-24T01:54:33;0.10;;;0.10;;
14554;SDS011;7364;50.870;4.722;2023-07-24T01:57:00;1.17;;;1.00;;
14554;SDS011;7364;50.870;4.722;2023-07-24T01:59:28;0.30;;;0.30;;
14554;SDS011;7364;50.870;4.722;2023-07-24T02:01:57;0.13;;;0.13;;
14554;SDS011;7364;50.870;4.722;2023-07-24T02:04:24;3.80;;;0.93;;
14554;SDS011;7364;50.870;4.722;2023-07-24T02:06:51;0.10;;;0.10;;
14554;SDS011;7364;50.870;4.722;2023-07-24T02:09:19;0.50;;;0.50;;
14554;SDS011;7364;50.870;4.722;2023-07-24T02:11:46;0.97;;;0.97;;
14554;SDS011;7364;50.870;4.722;2023-07-24T02:14:14;0.27;;;0.27;;
14554;SDS011;7364;50.870;4.722;2023-07-24T02:16:42;0.23;;;0.23;;
14554;SDS011;7364;50.870;4.722;2023-07-24T02:19:11;0.50;;;0.50;;
14554;SDS011;7364;50.870;4.722;2023-07-24T02:21:38;0.50;;;0.50;;
14554;SDS011;7364;50.870;4.722;2023-07-24T02:24:06;0.50;;;0.33;;
14554;SDS011;7364;50.870;4.722;2023-07-24T02:26:33;0.27;;;0.27;;
14554;SDS011;7364;50.870;4.722;2023-07-24T02:29:01;0.10;;;0.10;;
14554;SDS011;7364;50.870;4.722;2023-07-24T02:31:28;0.53;;;0.53;;
14554;SDS011;7364;50.870;4.722;2023-07-24T02:33:55;1.17;;;1.00;;
14554;SDS011;7364;50.870;4.722;2023-07-24T02:36:24;0.60;;;0.60;;
14554;SDS011;7364;50.870;4.722;2023-07-24T02:38:52;0.23;;;0.20;;
14554;SDS011;7364;50.870;4.722;2023-07-24T02:41:19;0.20;;;0.20;;
14554;SDS011;7364;50.870;4.722;2023-07-24T02:43:46;0.23;;;0.23;;
14554;SDS011;7364;50.870;4.722;2023-07-24T02:46:15;0.63;;;0.57;;
14554;SDS011;7364;50.870;4.722;2023-07-24T02:48:42;1.50;;;1.00;;
14554;SDS011;7364;50.870;4.722;2023-07-24T02:51:10;0.30;;;0.30;;
14554;SDS011;7364;50.870;4.722;2023-07-24T02:53:38;2.90;;;1.40;;
14554;SDS011;7364;50.870;4.722;2023-07-24T02:56:06;0.20;;;0.20;;
14554;SDS011;7364;50.870;4.722;2023-07-24T02:58:33;0.67;;;0.67;;
14554;SDS011;7364;50.870;4.722;2023-07-24T03:01:03;0.47;;;0.47;;
14554;SDS011;7364;50.870;4.722;2023-07-24T03:03:31;0.70;;;0.70;;
14554;SDS011;7364;50.870;4.722;2023-07-24T03:05:59;1.93;;;1.70;;
14554;SDS011;7364;50.870;4.722;2023-07-24T03:08:26;1.03;;;1.03;;
14554;SDS011;7364;50.870;4.722;2023-07-24T03:10:55;0.20;;;0.20;;
14554;SDS011;7364;50.870;4.722;2023-07-24T03:13:22;2.60;;;1.07;;
14554;SDS011;7364;50.870;4.722;2023-07-24T03:15:53;0.70;;;0.70;;
14554;SDS011;7364;50.870;4.722;2023-07-24T03:18:21;0.53;;;0.53;;
14554;SDS011;7364;50.870;4.722;2023-07-24T03:20:49;0.10;;;0.10;;
14554;SDS011;7364;50.870;4.722;2023-07-24T03:23:16;0.73;;;0.67;;
14554;SDS011;7364;50.870;4.722;2023-07-24T03:25:44;0.40;;;0.40;;
14554;SDS011;7364;50.870;4.722;2023-07-24T03:28:12;0.00;;;0.00;;
14554;SDS011;7364;50.870;4.722;2023-07-24T03:30:40;0.00;;;0.00;;
14554;SDS011;7364;50.870;4.722;2023-07-24T03:33:07;0.30;;;0.30;;
14554;SDS011;7364;50.870;4.722;2023-07-24T03:35:34;0.10;;;0.10;;
14554;SDS011;7364;50.870;4.722;2023-07-24T03:38:02;0.20;;;0.20;;
14554;SDS011;7364;50.870;4.722;2023-07-24T03:40:29;0.23;;;0.23;;
14554;SDS011;7364;50.870;4.722;2023-07-24T03:42:56;0.50;;;0.50;;
14554;SDS011;7364;50.870;4.722;2023-07-24T03:45:25;0.17;;;0.17;;
14554;SDS011;7364;50.870;4.722;2023-07-24T03:47:52;0.40;;;0.40;;
14554;SDS011;7364;50.870;4.722;2023-07-24T03:50:20;0.00;;;0.00;;
14554;SDS011;7364;50.870;4.722;2023-07-24T03:52:47;0.20;;;0.20;;
14554;SDS011;7364;50.870;4.722;2023-07-24T03:55:15;1.33;;;1.17;;
14554;SDS011;7364;50.870;4.722;2023-07-24T03:57:42;0.00;;;0.00;;
14554;SDS011;7364;50.870;4.722;2023-07-24T04:00:09;0.00;;;0.00;;
14554;SDS011;7364;50.870;4.722;2023-07-24T04:02:39;0.00;;;0.00;;
14554;SDS011;7364;50.870;4.722;2023-07-24T04:05:07;0.10;;;0.10;;
14554;SDS011;7364;50.870;4.722;2023-07-24T04:07:34;0.37;;;0.37;;
14554;SDS011;7364;50.870;4.722;2023-07-24T04:10:02;0.10;;;0.10;;
14554;SDS011;7364;50.870;4.722;2023-07-24T04:12:30;0.10;;;0.10;;
14554;SDS011;7364;50.870;4.722;2023-07-24T04:14:57;0.00;;;0.00;;
14554;SDS011;7364;50.870;4.722;2023-07-24T04:17:25;0.00;;;0.00;;
14554;SDS011;7364;50.870;4.722;2023-07-24T04:19:53;0.10;;;0.10;;
14554;SDS011;7364;50.870;4.722;2023-07-24T04:22:21;0.00;;;0.00;;
14554;SDS011;7364;50.870;4.722;2023-07-24T04:24:48;0.10;;;0.10;;
14554;SDS011;7364;50.870;4.722;2023-07-24T04:27:16;0.00;;;0.00;;
14554;SDS011;7364;50.870;4.722;2023-07-24T04:29:43;0.20;;;0.20;;
14554;SDS011;7364;50.870;4.722;2023-07-24T04:32:10;0.13;;;0.13;;
14554;SDS011;7364;50.870;4.722;2023-07-24T04:34:37;0.00;;;0.00;;
14554;SDS011;7364;50.870;4.722;2023-07-24T04:37:06;0.00;;;0.00;;
14554;SDS011;7364;50.870;4.722;2023-07-24T04:39:33;0.13;;;0.13;;
14554;SDS011;7364;50.870;4.722;2023-07-24T04:42:01;0.00;;;0.00;;
14554;SDS011;7364;50.870;4.722;2023-07-24T04:44:29;0.00;;;0.00;;
14554;SDS011;7364;50.870;4.722;2023-07-24T04:46:57;0.00;;;0.00;;
14554;SDS011;7364;50.870;4.722;2023-07-24T04:49:24;0.10;;;0.10;;
14554;SDS011;7364;50.870;4.722;2023-07-24T04:51:53;0.27;;;0.27;;
14554;SDS011;7364;50.870;4.722;2023-07-24T04:54:22;0.00;;;0.00;;
14554;SDS011;7364;50.870;4.722;2023-07-24T04:56:49;0.00;;;0.00;;
14554;SDS011;7364;50.870;4.722;2023-07-24T04:59:17;0.00;;;0.00;;
14554;SDS011;7364;50.870;4.722;2023-07-24T05:01:44;0.33;;;0.33;;
14554;SDS011;7364;50.870;4.722;2023-07-24T05:04:12;0.13;;;0.13;;
14554;SDS011;7364;50.870;4.722;2023-07-24T05:06:39;1.10;;;0.97;;
14554;SDS011;7364;50.870;4.722;2023-07-24T05:09:07;0.00;;;0.00;;
14554;SDS011;7364;50.870;4.722;2023-07-24T05:11:35;0.00;;;0.00;;
14554;SDS011;7364;50.870;4.722;2023-07-24T05:14:06;0.00;;;0.00;;
14554;SDS011;7364;50.870;4.722;2023-07-24T05:16:33;0.00;;;0.00;;
14554;SDS011;7364;50.870;4.722;2023-07-24T05:19:00;0.30;;;0.30;;
14554;SDS011;7364;50.870;4.722;2023-07-24T05:21:28;0.00;;;0.00;;
14554;SDS011;7364;50.870;4.722;2023-07-24T05:23:55;0.00;;;0.00;;
14554;SDS011;7364;50.870;4.722;2023-07-24T05:26:22;0.00;;;0.00;;
14554;SDS011;7364;50.870;4.722;2023-07-24T05:28:51;0.00;;;0.00;;
14554;SDS011;7364;50.870;4.722;2023-07-24T05:31:19;0.00;;;0.00;;
14554;SDS011;7364;50.870;4.722;2023-07-24T05:33:46;0.00;;;0.00;;
14554;SDS011;7364;50.870;4.722;2023-07-24T05:36:14;0.07;;;0.07;;
14554;SDS011;7364;50.870;4.722;2023-07-24T05:38:41;0.40;;;0.40;;
14554;SDS011;7364;50.870;4.722;2023-07-24T05:41:09;0.20;;;0.20;;
14554;SDS011;7364;50.870;4.722;2023-07-24T05:43:36;0.00;;;0.00;;
14554;SDS011;7364;50.870;4.722;2023-07-24T05:46:05;0.00;;;0.00;;
14554;SDS011;7364;50.870;4.722;2023-07-24T05:48:32;0.00;;;0.00;;
14554;SDS011;7364;50.870;4.722;2023-07-24T05:50:59;0.10;;;0.10;;
14554;SDS011;7364;50.870;4.722;2023-07-24T05:53:27;0.20;;;0.20;;
14554;SDS011;7364;50.870;4.722;2023-07-24T05:55:57;0.20;;;0.20;;
14554;SDS011;7364;50.870;4.722;2023-07-24T05:58:26;0.20;;;0.20;;
14554;SDS011;7364;50.870;4.722;2023-07-24T06:00:53;0.10;;;0.10;;
14554;SDS011;7364;50.870;4.722;2023-07-24T06:03:22;0.23;;;0.23;;
14554;SDS011;7364;50.870;4.722;2023-07-24T06:05:50;0.10;;;0.10;;
14554;SDS011;7364;50.870;4.722;2023-07-24T06:08:19;0.60;;;0.23;;
14554;SDS011;7364;50.870;4.722;2023-07-24T06:10:47;0.20;;;0.20;;
14554;SDS011;7364;50.870;4.722;2023-07-24T06:13:14;0.33;;;0.33;;
14554;SDS011;7364;50.870;4.722;2023-07-24T06:15:42;0.53;;;0.40;;
14554;SDS011;7364;50.870;4.722;2023-07-24T06:18:09;0.00;;;0.00;;
14554;SDS011;7364;50.870;4.722;2023-07-24T06:20:38;0.00;;;0.00;;
14554;SDS011;7364;50.870;4.722;2023-07-24T06:23:05;0.00;;;0.00;;
14554;SDS011;7364;50.870;4.722;2023-07-24T06:25:33;0.20;;;0.20;;
14554;SDS011;7364;50.870;4.722;2023-07-24T06:28:01;0.00;;;0.00;;
14554;SDS011;7364;50.870;4.722;2023-07-24T06:30:28;0.57;;;0.33;;
14554;SDS011;7364;50.870;4.722;2023-07-24T06:32:55;0.30;;;0.30;;
14554;SDS011;7364;50.870;4.722;2023-07-24T06:35:23;0.10;;;0.10;;
14554;SDS011;7364;50.870;4.722;2023-07-24T06:37:52;4.20;;;1.23;;
14554;SDS011;7364;50.870;4.722;2023-07-24T06:40:19;0.30;;;0.30;;
14554;SDS011;7364;50.870;4.722;2023-07-24T06:42:47;0.23;;;0.17;;
14554;SDS011;7364;50.870;4.722;2023-07-24T06:45:14;0.03;;;0.03;;
14554;SDS011;7364;50.870;4.722;2023-07-24T06:47:42;0.47;;;0.37;;
14554;SDS011;7364;50.870;4.722;2023-07-24T06:50:09;0.07;;;0.07;;
14554;SDS011;7364;50.870;4.722;2023-07-24T06:52:36;0.67;;;0.50;;
14554;SDS011;7364;50.870;4.722;2023-07-24T06:55:06;3.23;;;0.33;;
14554;SDS011;7364;50.870;4.722;2023-07-24T06:57:33;0.20;;;0.10;;
14554;SDS011;7364;50.870;4.722;2023-07-24T07:00:02;0.10;;;0.10;;
14554;SDS011;7364;50.870;4.722;2023-07-24T07:02:29;0.00;;;0.00;;
14554;SDS011;7364;50.870;4.722;2023-07-24T07:04:57;0.07;;;0.07;;
14554;SDS011;7364;50.870;4.722;2023-07-24T07:07:24;0.00;;;0.00;;
14554;SDS011;7364;50.870;4.722;2023-07-24T07:09:51;0.07;;;0.07;;
14554;SDS011;7364;50.870;4.722;2023-07-24T07:12:20;0.67;;;0.53;;
14554;SDS011;7364;50.870;4.722;2023-07-24T07:14:47;0.70;;;0.70;;
14554;SDS011;7364;50.870;4.722;2023-07-24T07:17:16;0.73;;;0.73;;
14554;SDS011;7364;50.870;4.722;2023-07-24T07:19:43;0.20;;;0.20;;
14554;SDS011;7364;50.870;4.722;2023-07-24T07:22:11;0.30;;;0.30;;
14554;SDS011;7364;50.870;4.722;2023-07-24T07:24:38;8.40;;;1.47;;
14554;SDS011;7364;50.870;4.722;2023-07-24T07:27:05;0.23;;;0.20;;
14554;SDS011;7364;50.870;4.722;2023-07-24T07:29:34;0.70;;;0.70;;
14554;SDS011;7364;50.870;4.722;2023-07-24T07:32:01;0.00;;;0.00;;
14554;SDS011;7364;50.870;4.722;2023-07-24T07:34:29;0.13;;;0.13;;
14554;SDS011;7364;50.870;4.722;2023-07-24T07:36:56;0.43;;;0.43;;
14554;SDS011;7364;50.870;4.722;2023-07-24T07:39:23;0.10;;;0.10;;
14554;SDS011;7364;50.870;4.722;2023-07-24T07:41:51;0.00;;;0.00;;
14554;SDS011;7364;50.870;4.722;2023-07-24T07:44:18;0.27;;;0.13;;
14554;SDS011;7364;50.870;4.722;2023-07-24T07:46:47;5.47;;;2.43;;
14554;SDS011;7364;50.870;4.722;2023-07-24T07:49:14;3.57;;;2.30;;
14554;SDS011;7364;50.870;4.722;2023-07-24T07:51:41;3.90;;;2.37;;
14554;SDS011;7364;50.870;4.722;2023-07-24T07:54:09;3.37;;;2.17;;
14554;SDS011;7364;50.870;4.722;2023-07-24T07:56:36;2.67;;;1.87;;
14554;SDS011;7364;50.870;4.722;2023-07-24T07:59:03;4.60;;;2.07;;
14554;SDS011;7364;50.870;4.722;2023-07-24T08:01:30;2.70;;;2.10;;
14554;SDS011;7364;50.870;4.722;2023-07-24T08:03:59;3.60;;;2.23;;
14554;SDS011;7364;50.870;4.722;2023-07-24T08:06:26;3.60;;;2.43;;
14554;SDS011;7364;50.870;4.722;2023-07-24T08:08:54;4.50;;;2.50;;
14554;SDS011;7364;50.870;4.722;2023-07-24T08:11:21;2.70;;;2.27;;
14554;SDS011;7364;50.870;4.722;2023-07-24T08:13:48;3.63;;;2.43;;
14554;SDS011;7364;50.870;4.722;2023-07-24T08:16:15;4.13;;;2.50;;
14554;SDS011;7364;50.870;4.722;2023-07-24T08:18:44;4.10;;;2.30;;
14554;SDS011;7364;50.870;4.722;2023-07-24T08:21:14;2.83;;;2.23;;
14554;SDS011;7364;50.870;4.722;2023-07-24T08:23:41;5.50;;;3.00;;
14554;SDS011;7364;50.870;4.722;2023-07-24T08:26:09;3.83;;;2.63;;
14554;SDS011;7364;50.870;4.722;2023-07-24T08:28:36;4.27;;;2.60;;
14554;SDS011;7364;50.870;4.722;2023-07-24T08:31:07;3.83;;;2.50;;
14554;SDS011;7364;50.870;4.722;2023-07-24T08:33:34;3.77;;;2.30;;
14554;SDS011;7364;50.870;4.722;2023-07-24T08:36:02;3.47;;;2.20;;
14554;SDS011;7364;50.870;4.722;2023-07-24T08:38:32;2.53;;;2.10;;
14554;SDS011;7364;50.870;4.722;2023-07-24T08:41:00;2.20;;;1.60;;
14554;SDS011;7364;50.870;4.722;2023-07-24T08:43:29;4.40;;;2.50;;
14554;SDS011;7364;50.870;4.722;2023-07-24T08:45:57;2.80;;;1.90;;
14554;SDS011;7364;50.870;4.722;2023-07-24T08:48:25;2.83;;;2.20;;
14554;SDS011;7364;50.870;4.722;2023-07-24T08:50:55;3.97;;;2.20;;
14554;SDS011;7364;50.870;4.722;2023-07-24T08:53:24;3.60;;;2.00;;
14554;SDS011;7364;50.870;4.722;2023-07-24T08:55:53;4.03;;;2.00;;
14554;SDS011;7364;50.870;4.722;2023-07-24T08:58:21;5.80;;;2.53;;
14554;SDS011;7364;50.870;4.722;2023-07-24T09:00:48;3.20;;;2.30;;
14554;SDS011;7364;50.870;4.722;2023-07-24T09:03:16;3.30;;;2.00;;
14554;SDS011;7364;50.870;4.722;2023-07-24T09:05:44;2.93;;;2.07;;
14554;SDS011;7364;50.870;4.722;2023-07-24T09:08:11;3.77;;;2.43;;
14554;SDS011;7364;50.870;4.722;2023-07-24T09:10:39;5.30;;;2.17;;
14554;SDS011;7364;50.870;4.722;2023-07-24T09:13:11;3.73;;;2.30;;
14554;SDS011;7364;50.870;4.722;2023-07-24T09:15:39;3.77;;;2.50;;
14554;SDS011;7364;50.870;4.722;2023-07-24T09:18:07;4.70;;;2.43;;
14554;SDS011;7364;50.870;4.722;2023-07-24T09:20:38;7.23;;;3.07;;
14554;SDS011;7364;50.870;4.722;2023-07-24T09:23:06;5.33;;;3.00;;
14554;SDS011;7364;50.870;4.722;2023-07-24T09:25:35;4.77;;;2.77;;
14554;SDS011;7364;50.870;4.722;2023-07-24T09:28:10;3.83;;;2.70;;
14554;SDS011;7364;50.870;4.722;2023-07-24T09:30:38;4.50;;;3.43;;
14554;SDS011;7364;50.870;4.722;2023-07-24T09:33:07;6.10;;;3.67;;
14554;SDS011;7364;50.870;4.722;2023-07-24T09:35:34;4.17;;;3.50;;
14554;SDS011;7364;50.870;4.722;2023-07-24T09:38:03;8.17;;;3.13;;
14554;SDS011;7364;50.870;4.722;2023-07-24T09:40:38;2.97;;;2.60;;
14554;SDS011;7364;50.870;4.722;2023-07-24T09:43:18;6.63;;;3.43;;
14554;SDS011;7364;50.870;4.722;2023-07-24T09:45:47;5.57;;;3.80;;
14554;SDS011;7364;50.870;4.722;2023-07-24T09:48:16;6.73;;;3.63;;
14554;SDS011;7364;50.870;4.722;2023-07-24T09:50:45;4.07;;;3.23;;
14554;SDS011;7364;50.870;4.722;2023-07-24T09:53:14;4.97;;;3.70;;
14554;SDS011;7364;50.870;4.722;2023-07-24T09:55:49;4.07;;;3.00;;
14554;SDS011;7364;50.870;4.722;2023-07-24T09:58:23;5.50;;;3.23;;
14554;SDS011;7364;50.870;4.722;2023-07-24T10:00:52;5.30;;;3.50;;
14554;SDS011;7364;50.870;4.722;2023-07-24T10:03:20;4.43;;;3.33;;
14554;SDS011;7364;50.870;4.722;2023-07-24T10:05:48;7.67;;;3.80;;
14554;SDS011;7364;50.870;4.722;2023-07-24T10:08:17;5.17;;;3.60;;
14554;SDS011;7364;50.870;4.722;2023-07-24T10:10:45;5.43;;;3.53;;
14554;SDS011;7364;50.870;4.722;2023-07-24T10:13:16;4.23;;;3.40;;
14554;SDS011;7364;50.870;4.722;2023-07-24T10:15:46;5.03;;;3.23;;
14554;SDS011;7364;50.870;4.722;2023-07-24T10:18:15;5.27;;;3.30;;
14554;SDS011;7364;50.870;4.722;2023-07-24T10:20:43;3.73;;;2.93;;
14554;SDS011;7364;50.870;4.722;2023-07-24T10:23:15;3.97;;;3.03;;
14554;SDS011;7364;50.870;4.722;2023-07-24T10:25:45;3.90;;;2.93;;
14554;SDS011;7364;50.870;4.722;2023-07-24T10:28:12;3.53;;;2.43;;
14554;SDS011;7364;50.870;4.722;2023-07-24T10:30:41;5.50;;;3.00;;
14554;SDS011;7364;50.870;4.722;2023-07-24T10:33:11;3.13;;;2.30;;
14554;SDS011;7364;50.870;4.722;2023-07-24T10:35:39;3.23;;;2.33;;
14554;SDS011;7364;50.870;4.722;2023-07-24T10:38:09;3.87;;;2.77;;
14554;SDS011;7364;50.870;4.722;2023-07-24T10:40:37;6.47;;;3.30;;
14554;SDS011;7364;50.870;4.722;2023-07-24T10:43:06;4.83;;;2.83;;
14554;SDS011;7364;50.870;4.722;2023-07-24T10:45:41;5.27;;;2.97;;
14554;SDS011;7364;50.870;4.722;2023-07-24T10:48:10;3.33;;;2.43;;
14554;SDS011;7364;50.870;4.722;2023-07-24T10:50:38;2.63;;;1.80;;
14554;SDS011;7364;50.870;4.722;2023-07-24T10:53:06;4.27;;;2.23;;
14554;SDS011;7364;50.870;4.722;2023-07-24T10:55:34;4.30;;;2.50;;
14554;SDS011;7364;50.870;4.722;2023-07-24T10:58:01;4.17;;;2.60;;
14554;SDS011;7364;50.870;4.722;2023-07-24T11:00:29;3.53;;;2.30;;
14554;SDS011;7364;50.870;4.722;2023-07-24T11:02:56;3.30;;;2.33;;
14554;SDS011;7364;50.870;4.722;2023-07-24T11:05:25;3.73;;;2.50;;
14554;SDS011;7364;50.870;4.722;2023-07-24T11:07:52;5.37;;;2.70;;
14554;SDS011;7364;50.870;4.722;2023-07-24T11:10:21;2.90;;;2.23;;
14554;SDS011;7364;50.870;4.722;2023-07-24T11:12:49;4.90;;;2.60;;
14554;SDS011;7364;50.870;4.722;2023-07-24T11:15:22;3.13;;;2.33;;
14554;SDS011;7364;50.870;4.722;2023-07-24T11:17:51;3.83;;;2.13;;
14554;SDS011;7364;50.870;4.722;2023-07-24T11:20:18;4.27;;;2.50;;
14554;SDS011;7364;50.870;4.722;2023-07-24T11:22:47;3.17;;;2.10;;
14554;SDS011;7364;50.870;4.722;2023-07-24T11:25:14;3.40;;;2.47;;
14554;SDS011;7364;50.870;4.722;2023-07-24T11:27:42;4.00;;;2.37;;
14554;SDS011;7364;50.870;4.722;2023-07-24T11:30:10;4.97;;;2.73;;
14554;SDS011;7364;50.870;4.722;2023-07-24T11:32:39;4.70;;;2.90;;
14554;SDS011;7364;50.870;4.722;2023-07-24T11:35:07;4.00;;;2.60;;
14554;SDS011;7364;50.870;4.722;2023-07-24T11:37:34;3.33;;;2.50;;
14554;SDS011;7364;50.870;4.722;2023-07-24T11:40:04;5.17;;;2.57;;
14554;SDS011;7364;50.870;4.722;2023-07-24T11:42:38;4.47;;;2.97;;
14554;SDS011;7364;50.870;4.722;2023-07-24T11:45:07;3.87;;;3.03;;
14554;SDS011;7364;50.870;4.722;2023-07-24T11:47:42;4.10;;;2.83;;
14554;SDS011;7364;50.870;4.722;2023-07-24T11:50:11;6.83;;;3.23;;
14554;SDS011;7364;50.870;4.722;2023-07-24T11:52:40;4.10;;;2.77;;
14554;SDS011;7364;50.870;4.722;2023-07-24T11:55:10;6.93;;;3.20;;
14554;SDS011;7364;50.870;4.722;2023-07-24T11:57:38;3.83;;;3.10;;
14554;SDS011;7364;50.870;4.722;2023-07-24T12:00:06;4.93;;;2.87;;
14554;SDS011;7364;50.870;4.722;2023-07-24T12:02:44;3.87;;;2.77;;
14554;SDS011;7364;50.870;4.722;2023-07-24T12:05:12;7.07;;;3.10;;
14554;SDS011;7364;50.870;4.722;2023-07-24T12:07:39;5.10;;;3.20;;
14554;SDS011;7364;50.870;4.722;2023-07-24T12:10:09;4.27;;;2.80;;
14554;SDS011;7364;50.870;4.722;2023-07-24T12:12:38;4.67;;;3.13;;
14554;SDS011;7364;50.870;4.722;2023-07-24T12:15:07;4.70;;;3.07;;
14554;SDS011;7364;50.870;4.722;2023-07-24T12:17:35;6.60;;;3.57;;
14554;SDS011;7364;50.870;4.722;2023-07-24T12:20:03;4.07;;;2.80;;
14554;SDS011;7364;50.870;4.722;2023-07-24T12:22:33;3.37;;;2.93;;
14554;SDS011;7364;50.870;4.722;2023-07-24T12:25:01;3.17;;;2.57;;
14554;SDS011;7364;50.870;4.722;2023-07-24T12:27:29;4.70;;;3.23;;
14554;SDS011;7364;50.870;4.722;2023-07-24T12:29:57;5.13;;;2.70;;
14554;SDS011;7364;50.870;4.722;2023-07-24T12:32:24;5.53;;;3.10;;
14554;SDS011;7364;50.870;4.722;2023-07-24T12:34:52;3.97;;;2.83;;
14554;SDS011;7364;50.870;4.722;2023-07-24T12:37:20;4.87;;;2.87;;
14554;SDS011;7364;50.870;4.722;2023-07-24T12:39:47;4.33;;;2.93;;
14554;SDS011;7364;50.870;4.722;2023-07-24T12:42:15;3.83;;;2.97;;
14554;SDS011;7364;50.870;4.722;2023-07-24T12:44:44;4.40;;;3.08;;
14554;SDS011;7364;50.870;4.722;2023-07-24T12:47:11;4.68;;;3.42;;
14554;SDS011;7364;50.870;4.722;2023-07-24T12:49:39;4.18;;;3.25;;
14554;SDS011;7364;50.870;4.722;2023-07-24T12:52:07;3.67;;;3.08;;
14554;SDS011;7364;50.870;4.722;2023-07-24T12:54:34;4.80;;;3.40;;
14554;SDS011;7364;50.870;4.722;2023-07-24T12:57:01;8.63;;;3.90;;
14554;SDS011;7364;50.870;4.722;2023-07-24T12:59:29;5.40;;;3.60;;
14554;SDS011;7364;50.870;4.722;2023-07-24T13:01:57;5.90;;;3.50;;
14554;SDS011;7364;50.870;4.722;2023-07-24T13:04:25;5.70;;;3.47;;
14554;SDS011;7364;50.870;4.722;2023-07-24T13:06:52;5.67;;;3.83;;
14554;SDS011;7364;50.870;4.722;2023-07-24T13:09:19;6.67;;;3.47;;
14554;SDS011;7364;50.870;4.722;2023-07-24T13:11:49;5.40;;;4.07;;
14554;SDS011;7364;50.870;4.722;2023-07-24T13:14:17;4.70;;;3.20;;
14554;SDS011;7364;50.870;4.722;2023-07-24T13:16:44;4.53;;;3.70;;
14554;SDS011;7364;50.870;4.722;2023-07-24T13:19:13;4.60;;;3.40;;
14554;SDS011;7364;50.870;4.722;2023-07-24T13:21:40;9.93;;;3.67;;
14554;SDS011;7364;50.870;4.722;2023-07-24T13:24:08;5.40;;;3.50;;
14554;SDS011;7364;50.870;4.722;2023-07-24T13:26:35;4.47;;;3.27;;
14554;SDS011;7364;50.870;4.722;2023-07-24T13:29:03;4.97;;;3.17;;
14554;SDS011;7364;50.870;4.722;2023-07-24T13:31:30;4.90;;;3.28;;
14554;SDS011;7364;50.870;4.722;2023-07-24T13:33:58;5.13;;;3.20;;
14554;SDS011;7364;50.870;4.722;2023-07-24T13:36:27;3.57;;;3.13;;
14554;SDS011;7364;50.870;4.722;2023-07-24T13:38:54;6.50;;;3.53;;
14554;SDS011;7364;50.870;4.722;2023-07-24T13:41:21;6.33;;;3.03;;
14554;SDS011;7364;50.870;4.722;2023-07-24T13:43:49;4.60;;;2.80;;
14554;SDS011;7364;50.870;4.722;2023-07-24T13:46:16;4.20;;;3.20;;
14554;SDS011;7364;50.870;4.722;2023-07-24T13:48:44;4.40;;;3.50;;
14554;SDS011;7364;50.870;4.722;2023-07-24T13:51:11;5.07;;;3.27;;
14554;SDS011;7364;50.870;4.722;2023-07-24T13:53:40;4.93;;;2.87;;
14554;SDS011;7364;50.870;4.722;2023-07-24T13:56:08;5.43;;;3.33;;
14554;SDS011;7364;50.870;4.722;2023-07-24T13:58:35;4.43;;;3.10;;
14554;SDS011;7364;50.870;4.722;2023-07-24T14:01:02;9.43;;;3.83;;
14554;SDS011;7364;50.870;4.722;2023-07-24T14:03:32;6.63;;;3.20;;
14554;SDS011;7364;50.870;4.722;2023-07-24T14:05:59;7.97;;;3.07;;
14554;SDS011;7364;50.870;4.722;2023-07-24T14:08:26;5.37;;;3.30;;
14554;SDS011;7364;50.870;4.722;2023-07-24T14:10:55;6.10;;;3.33;;
14554;SDS011;7364;50.870;4.722;2023-07-24T14:13:25;6.43;;;3.40;;
14554;SDS011;7364;50.870;4.722;2023-07-24T14:15:52;5.60;;;3.23;;
14554;SDS011;7364;50.870;4.722;2023-07-24T14:18:19;5.70;;;3.43;;
14554;SDS011;7364;50.870;4.722;2023-07-24T14:20:47;4.00;;;3.07;;
14554;SDS011;7364;50.870;4.722;2023-07-24T14:23:14;3.80;;;2.47;;
14554;SDS011;7364;50.870;4.722;2023-07-24T14:25:41;4.33;;;2.67;;
14554;SDS011;7364;50.870;4.722;2023-07-24T14:28:10;4.37;;;2.90;;
14554;SDS011;7364;50.870;4.722;2023-07-24T14:30:37;3.87;;;2.63;;
14554;SDS011;7364;50.870;4.722;2023-07-24T14:33:05;4.30;;;2.70;;
14554;SDS011;7364;50.870;4.722;2023-07-24T14:35:32;4.33;;;2.70;;
14554;SDS011;7364;50.870;4.722;2023-07-24T14:37:59;3.00;;;2.25;;
14554;SDS011;7364;50.870;4.722;2023-07-24T14:40:26;6.85;;;3.08;;
14554;SDS011;7364;50.870;4.722;2023-07-24T14:42:54;2.90;;;2.37;;
14554;SDS011;7364;50.870;4.722;2023-07-24T14:45:22;4.17;;;2.70;;
14554;SDS011;7364;50.870;4.722;2023-07-24T14:47:50;3.23;;;2.50;;
14554;SDS011;7364;50.870;4.722;2023-07-24T14:50:17;4.93;;;2.53;;
14554;SDS011;7364;50.870;4.722;2023-07-24T14:52:44;4.37;;;2.70;;
14554;SDS011;7364;50.870;4.722;2023-07-24T14:55:12;3.67;;;2.40;;
14554;SDS011;7364;50.870;4.722;2023-07-24T14:57:41;5.17;;;2.97;;
14554;SDS011;7364;50.870;4.722;2023-07-24T15:00:08;4.10;;;2.70;;
14554;SDS011;7364;50.870;4.722;2023-07-24T15:02:38;3.83;;;2.50;;
14554;SDS011;7364;50.870;4.722;2023-07-24T15:05:05;3.83;;;2.63;;